Date,TemperatureHighF,TemperatureAvgF,TemperatureLowF,DewpointHighF,DewpointAvgF,DewpointLowF,HumidityHigh,HumidityAvg,HumidityLow,PressureMaxIn,PressureMinIn,WindSpeedMaxMPH,WindSpeedAvgMPH,GustSpeedMaxMPH,PrecipitationSumIn
2013-1-1,32,13,4,29,8,-1,94,79,69,29.86,29.58,14,3,14,0.00
2013-1-2,16,5,-14,13,-1,-19,88,76,62,30.15,29.74,12,3,12,0.00
2013-1-3,24,3,-14,23,-1,-19,96,82,74,30.14,29.74,9,1,9,0.00
2013-1-4,32,29,24,29,26,22,96,86,80,29.76,29.61,29,7,29,0.00
2013-1-5,32,27,23,28,21,15,93,79,66,30.14,29.69,15,4,15,0.00
2013-1-6,33,29,18,33,28,18,100,94,77,29.96,29.71,10,3,10,0.00
2013-1-7,27,18,9,24,16,7,96,91,86,30.28,29.94,8,0,8,0.00
2013-1-8,35,32,27,31,27,22,88,81,76,30.22,29.99,14,5,14,0.00
2013-1-9,43,35,27,35,29,22,92,79,66,30.20,29.72,21,5,21,0.08
2013-1-10,42,33,24,30,26,21,90,75,60,30.44,29.97,14,3,14,0.00
2013-1-11,40,31,24,40,28,21,100,88,76,30.38,29.85,9,1,9,0.02
2013-1-12,57,47,40,49,44,40,100,89,73,29.91,29.83,11,5,11,0.00
2013-1-13,59,51,44,55,49,43,100,91,81,29.91,29.62,15,4,15,0.17
2013-1-14,56,40,31,52,35,25,100,81,59,30.20,29.57,25,5,25,0.06
2013-1-15,34,29,24,26,21,18,84,72,59,30.25,30.11,8,2,8,0.00
2013-1-16,35,31,26,29,26,21,87,82,76,30.09,29.60,12,3,14,0.00
2013-1-17,34,14,-4,32,5,-11,100,70,45,30.12,29.62,8,1,15,0.00
2013-1-18,24,9,-6,13,0,-10,81,67,46,30.26,29.95,10,2,18,0.00
2013-1-19,46,34,24,33,24,12,87,67,53,29.95,29.45,12,4,22,0.00
2013-1-20,47,31,10,36,18,1,93,61,46,29.90,29.16,17,5,37,0.04
2013-1-21,12,6,1,3,0,-5,83,74,64,29.94,29.71,5,1,9,0.00
2013-1-22,10,5,-4,5,-2,-11,87,75,59,30.03,29.69,5,1,12,0.00
2013-1-23,-2,-9,-15,-11,-17,-22,75,65,51,30.13,30.01,4,1,8,0.00
2013-1-24,6,-4,-13,-7,-13,-18,80,68,51,30.30,30.05,7,1,14,0.00
2013-1-25,12,4,-6,1,-5,-11,79,67,52,30.32,29.99,4,1,7,0.00
2013-1-26,15,7,-5,6,0,-9,85,73,54,30.24,29.99,4,1,7,0.00
2013-1-27,18,10,-1,6,1,-4,86,69,44,30.43,30.23,4,0,8,0.00
2013-1-28,28,22,15,26,17,6,94,82,60,30.32,29.80,4,0,8,0.00
2013-1-29,81,24,16,81,22,14,100,91,84,30.00,29.65,50,1,50,0.45
2013-1-30,66,58,47,56,52,47,100,82,63,29.65,29.00,15,6,27,0.17
2013-1-31,54,34,18,53,26,8,100,73,52,29.45,28.72,14,6,29,0.73